createdAt,value
2019-04-05T00:00:49.877Z,6.52
2019-04-05T00:03:19.401Z,6.55
2019-04-05T00:05:48.759Z,6.53
2019-04-05T00:08:18.097Z,6.57
2019-04-05T00:10:47.738Z,6.59
2019-04-05T00:13:17.149Z,6.71
2019-04-05T00:15:46.614Z,6.71
2019-04-05T00:18:16.158Z,6.74
2019-04-05T00:20:45.564Z,6.78
2019-04-05T00:23:14.830Z,6.73
2019-04-05T00:25:44.271Z,6.78
2019-04-05T00:28:13.610Z,6.77
2019-04-05T00:30:42.914Z,6.78
2019-04-05T00:33:12.306Z,6.91
2019-04-05T00:35:41.662Z,6.88
2019-04-05T00:38:11.106Z,6.83
2019-04-05T00:40:40.705Z,6.90
2019-04-05T00:43:10.107Z,6.86
2019-04-05T00:45:39.420Z,6.81
2019-04-05T00:48:08.833Z,6.87
2019-04-05T00:50:38.544Z,6.86
2019-04-05T00:53:07.845Z,6.84
2019-04-05T00:55:37.661Z,6.85
2019-04-05T00:58:07.032Z,6.86
2019-04-05T01:00:36.598Z,6.86
2019-04-05T01:03:06.164Z,6.84
2019-04-05T01:05:35.613Z,6.84
2019-04-05T01:08:05.022Z,6.83
2019-04-05T01:10:34.643Z,6.83
2019-04-05T01:13:04.225Z,6.81
2019-04-05T01:15:40.882Z,6.80
2019-04-05T01:18:05.674Z,6.79
2019-04-05T01:20:38.326Z,6.77
2019-04-05T01:23:07.959Z,6.78
2019-04-05T01:25:37.953Z,6.73
2019-04-05T01:28:07.580Z,6.72
2019-04-05T01:30:37.152Z,6.61
2019-04-05T01:33:06.528Z,6.58
2019-04-05T01:35:35.871Z,6.57
2019-04-05T01:38:05.401Z,6.58
2019-04-05T01:40:36.584Z,6.55
2019-04-05T01:43:06.490Z,6.59
2019-04-05T01:45:36.081Z,6.58
2019-04-05T01:48:05.645Z,6.58
2019-04-05T01:50:35.190Z,6.58
2019-04-05T01:53:04.564Z,6.60
2019-04-05T01:55:33.888Z,6.60
2019-04-05T01:58:03.728Z,6.58
2019-04-05T02:00:33.232Z,6.69
2019-04-05T02:03:02.524Z,6.75
2019-04-05T02:05:31.929Z,6.77
2019-04-05T02:08:01.223Z,6.80
2019-04-05T02:10:30.588Z,6.73
2019-04-05T02:13:00.196Z,6.71
2019-04-05T02:15:31.663Z,6.64
2019-04-05T02:18:01.345Z,6.63
2019-04-05T02:20:30.891Z,6.62
2019-04-05T02:23:00.242Z,6.55
2019-04-05T02:25:29.813Z,6.51
2019-04-05T02:27:59.086Z,6.51
2019-04-05T02:30:28.794Z,6.51
2019-04-05T02:32:58.236Z,6.52
2019-04-05T02:35:27.816Z,6.52
2019-04-05T02:37:57.161Z,6.54
2019-04-05T02:40:27.255Z,6.54
2019-04-05T02:42:58.606Z,6.55
2019-04-05T02:45:31.523Z,6.54
2019-04-05T02:48:04.419Z,6.42
2019-04-05T02:50:36.674Z,6.39
2019-04-05T02:53:08.880Z,6.37
2019-04-05T02:55:40.372Z,6.33
2019-04-05T02:58:10.977Z,6.35
2019-04-05T03:00:41.113Z,6.31
2019-04-05T03:03:10.776Z,6.31
2019-04-05T03:05:40.594Z,6.28
2019-04-05T03:08:10.032Z,6.28
2019-04-05T03:11:07.924Z,6.23
2019-04-05T03:13:46.866Z,6.27
2019-04-05T03:16:21.080Z,6.29
2019-04-05T03:18:59.227Z,6.33
2019-04-05T03:21:30.371Z,6.34
2019-04-05T03:24:03.193Z,6.42
2019-04-05T03:26:35.355Z,6.37
2019-04-05T03:29:08.094Z,6.31
2019-04-05T03:31:37.982Z,6.27
2019-04-05T03:34:08.113Z,6.30
2019-04-05T03:36:38.647Z,6.30
2019-04-05T03:39:08.579Z,6.23
2019-04-05T03:41:37.943Z,6.23
2019-04-05T03:44:08.786Z,6.23
2019-04-05T03:46:38.220Z,6.21
2019-04-05T03:49:07.717Z,6.17
2019-04-05T03:51:37.264Z,6.13
2019-04-05T03:54:07.049Z,6.17
2019-04-05T03:56:38.310Z,6.13
2019-04-05T03:59:08.168Z,6.09
2019-04-05T04:01:37.583Z,6.07
2019-04-05T04:04:06.884Z,6.08
2019-04-05T04:06:36.525Z,6.02
2019-04-05T04:09:07.194Z,6.05
2019-04-05T04:11:37.385Z,6.07
2019-04-05T04:14:07.421Z,6.04
2019-04-05T04:16:37.326Z,5.99
2019-04-05T04:19:06.767Z,5.99
2019-04-05T04:21:42.753Z,6.02
2019-04-05T04:24:12.385Z,5.97
2019-04-05T04:26:43.148Z,5.94
2019-04-05T04:29:13.688Z,5.92
2019-04-05T04:31:43.075Z,5.93
2019-04-05T04:34:12.778Z,5.96
2019-04-05T04:36:42.646Z,5.90
2019-04-05T04:39:12.347Z,5.98
2019-04-05T04:41:41.801Z,5.96
2019-04-05T04:44:11.335Z,5.93
2019-04-05T04:46:40.780Z,5.92
2019-04-05T04:49:10.391Z,5.96
2019-04-05T04:51:40.141Z,6.00
2019-04-05T04:54:09.702Z,5.97
2019-04-05T04:56:39.305Z,6.00
2019-04-05T04:59:09.044Z,5.99
2019-04-05T05:01:38.465Z,5.98
2019-04-05T05:04:08.438Z,5.97
2019-04-05T05:06:38.007Z,5.98
2019-04-05T05:09:07.850Z,5.99
2019-04-05T05:11:37.981Z,5.95
2019-04-05T05:14:07.692Z,5.98
2019-04-05T05:16:37.231Z,5.94
2019-04-05T05:19:07.077Z,5.94
2019-04-05T05:21:37.021Z,5.98
2019-04-05T05:24:06.612Z,5.92
2019-04-05T05:26:36.001Z,6.04
2019-04-05T05:29:05.594Z,6.17
2019-04-05T05:31:35.153Z,6.36
2019-04-05T05:34:05.061Z,6.53
2019-04-05T05:36:34.656Z,6.70
2019-04-05T05:39:06.056Z,6.89
2019-04-05T05:41:35.789Z,6.95
2019-04-05T05:44:05.281Z,6.96
2019-04-05T05:46:34.649Z,7.06
2019-04-05T05:49:04.258Z,6.94
2019-04-05T05:51:34.030Z,7.01
2019-04-05T05:54:03.305Z,7.39
2019-04-05T05:56:32.721Z,7.32
2019-04-05T05:59:02.033Z,7.30
2019-04-05T06:01:31.320Z,7.34
2019-04-05T06:04:00.828Z,7.63
2019-04-05T06:06:30.220Z,7.96
2019-04-05T06:08:59.503Z,8.15
2019-04-05T06:11:28.968Z,8.36
2019-04-05T06:13:58.339Z,8.84
2019-04-05T06:16:27.639Z,8.68
2019-04-05T06:18:56.967Z,9.01
2019-04-05T06:21:26.293Z,9.04
2019-04-05T06:23:55.514Z,8.98
2019-04-05T06:26:24.876Z,9.04
2019-04-05T06:28:54.344Z,9.32
2019-04-05T06:31:23.770Z,9.57
2019-04-05T06:33:53.055Z,9.35
2019-04-05T06:36:22.378Z,9.24
2019-04-05T06:38:51.643Z,9.51
2019-04-05T06:41:21.147Z,9.62
2019-04-05T06:43:50.467Z,10.12
2019-04-05T06:46:19.768Z,9.75
2019-04-05T06:48:49.277Z,10.05
2019-04-05T06:51:18.649Z,10.41
2019-04-05T06:53:47.947Z,10.68
2019-04-05T06:56:17.478Z,10.70
2019-04-05T06:58:46.822Z,10.93
2019-04-05T07:01:16.235Z,10.40
2019-04-05T07:03:45.805Z,10.25
2019-04-05T07:06:15.129Z,10.56
2019-04-05T07:08:53.671Z,10.74
2019-04-05T07:11:15.566Z,11.07
2019-04-05T07:13:44.827Z,10.74
2019-04-05T07:16:14.127Z,10.16
2019-04-05T07:18:43.447Z,9.83
2019-04-05T07:21:12.789Z,10.60
2019-04-05T07:23:42.134Z,9.99
2019-04-05T07:26:11.409Z,9.81
2019-04-05T07:28:40.697Z,9.77
2019-04-05T07:31:09.980Z,9.59
2019-04-05T07:33:39.358Z,10.04
2019-04-05T07:36:08.737Z,10.65
2019-04-05T07:38:38.053Z,10.52
2019-04-05T07:41:07.391Z,10.24
2019-04-05T07:43:36.753Z,10.68
2019-04-05T07:46:06.004Z,10.91
2019-04-05T07:48:44.632Z,10.21
2019-04-05T07:51:07.200Z,11.20
2019-04-05T07:53:36.745Z,10.34
2019-04-05T07:56:06.039Z,10.80
2019-04-05T07:58:35.420Z,10.98
2019-04-05T08:01:06.409Z,11.28
2019-04-05T08:03:35.732Z,11.22
2019-04-05T08:06:05.197Z,11.71
2019-04-05T08:08:49.718Z,11.24
2019-04-05T08:11:19.317Z,11.72
2019-04-05T08:13:50.090Z,12.07
2019-04-05T08:16:19.425Z,12.10
2019-04-05T08:18:57.796Z,12.77
2019-04-05T08:21:19.980Z,11.65
2019-04-05T08:23:49.338Z,11.23
2019-04-05T08:26:18.713Z,11.00
2019-04-05T08:28:48.304Z,10.70
2019-04-05T08:31:17.606Z,10.98
2019-04-05T08:33:46.986Z,11.28
2019-04-05T08:36:16.528Z,10.62
2019-04-05T08:38:45.777Z,11.43
2019-04-05T08:41:15.107Z,10.82
2019-04-05T08:43:47.041Z,11.22
2019-04-05T08:46:15.717Z,11.51
2019-04-05T08:48:45.276Z,11.12
2019-04-05T08:51:14.760Z,12.74
2019-04-05T08:53:44.076Z,13.04
2019-04-05T08:56:13.453Z,12.50
2019-04-05T08:58:42.765Z,13.28
2019-04-05T09:01:12.049Z,13.47
2019-04-05T09:03:41.563Z,13.16
2019-04-05T09:06:11.196Z,13.07
2019-04-05T09:08:40.508Z,13.43
2019-04-05T09:11:09.865Z,13.12
2019-04-05T09:13:39.201Z,13.37
2019-04-05T09:16:11.515Z,13.35
2019-04-05T09:18:39.491Z,14.37
2019-04-05T09:21:10.219Z,14.13
2019-04-05T09:23:39.599Z,13.30
2019-04-05T09:26:09.155Z,11.89
2019-04-05T09:28:38.465Z,12.20
2019-04-05T09:31:07.776Z,12.71
2019-04-05T09:33:37.301Z,13.91
2019-04-05T09:36:06.601Z,14.58
2019-04-05T09:38:35.919Z,14.00
2019-04-05T09:41:05.498Z,14.11
2019-04-05T09:43:34.820Z,14.75
2019-04-05T09:46:04.219Z,14.38
2019-04-05T09:48:33.813Z,13.08
2019-04-05T09:51:03.229Z,14.87
2019-04-05T09:53:32.512Z,15.55
2019-04-05T09:56:02.103Z,14.80
2019-04-05T09:58:31.418Z,14.43
2019-04-05T10:01:00.767Z,15.08
2019-04-05T10:03:30.325Z,14.72
2019-04-05T10:05:59.611Z,15.19
2019-04-05T10:08:28.857Z,14.73
2019-04-05T10:10:58.699Z,13.63
2019-04-05T10:13:28.004Z,13.50
2019-04-05T10:15:57.346Z,14.87
2019-04-05T10:18:26.816Z,15.13
2019-04-05T10:20:56.204Z,14.93
2019-04-05T10:23:25.509Z,14.03
2019-04-05T10:25:54.867Z,14.02
2019-04-05T10:28:24.168Z,14.72
2019-04-05T10:30:53.471Z,15.28
2019-04-05T10:33:23.056Z,15.00
2019-04-05T10:35:52.393Z,13.29
2019-04-05T10:38:21.719Z,13.94
2019-04-05T10:40:51.176Z,14.50
2019-04-05T10:43:20.535Z,14.54
2019-04-05T10:45:49.852Z,14.84
2019-04-05T10:48:19.433Z,14.80
2019-04-05T10:50:48.735Z,14.64
2019-04-05T10:53:18.100Z,14.84
2019-04-05T10:55:47.633Z,15.02
2019-04-05T10:58:16.950Z,14.45
2019-04-05T11:00:46.215Z,13.65
2019-04-05T11:03:15.768Z,13.36
2019-04-05T11:05:45.086Z,14.25
2019-04-05T11:08:14.382Z,13.15
2019-04-05T11:10:43.922Z,12.40
2019-04-05T11:13:13.247Z,13.36
2019-04-05T11:15:42.542Z,13.08
2019-04-05T11:18:12.112Z,12.21
2019-04-05T11:20:41.383Z,13.48
2019-04-05T11:23:10.646Z,13.19
2019-04-05T11:25:40.211Z,13.05
2019-04-05T11:28:09.866Z,12.59
2019-04-05T11:30:47.056Z,11.98
2019-04-05T11:33:19.458Z,11.00
2019-04-05T11:35:47.784Z,10.28
2019-04-05T11:38:17.948Z,9.88
2019-04-05T11:40:47.748Z,9.45
2019-04-05T11:43:18.009Z,9.57
2019-04-05T11:45:48.528Z,9.85
2019-04-05T11:48:18.794Z,9.90
2019-04-05T11:50:48.149Z,9.90
2019-04-05T11:53:17.571Z,9.38
2019-04-05T11:55:47.078Z,9.38
2019-04-05T11:58:16.416Z,9.23
2019-04-05T12:01:07.931Z,9.35
2019-04-05T12:03:37.386Z,9.44
2019-04-05T12:06:06.689Z,9.55
2019-04-05T12:08:36.159Z,9.58
2019-04-05T12:11:05.648Z,9.59
2019-04-05T12:13:34.951Z,9.57
2019-04-05T12:16:06.007Z,9.23
2019-04-05T12:18:35.521Z,9.39
2019-04-05T12:21:05.819Z,9.51
2019-04-05T12:23:35.245Z,9.62
2019-04-05T12:26:05.005Z,9.53
2019-04-05T12:28:34.464Z,9.61
2019-04-05T12:31:03.782Z,9.57
2019-04-05T12:33:33.118Z,9.68
2019-04-05T12:36:02.443Z,9.60
2019-04-05T12:38:33.030Z,9.66
2019-04-05T12:41:03.904Z,9.81
2019-04-05T12:43:33.509Z,9.92
2019-04-05T12:46:03.094Z,9.83
2019-04-05T12:48:32.472Z,9.69
2019-04-05T12:51:03.822Z,9.74
2019-04-05T12:53:32.861Z,9.44
2019-04-05T12:56:02.328Z,9.22
2019-04-05T12:58:32.877Z,9.29
2019-04-05T13:01:02.523Z,9.40
2019-04-05T13:03:31.822Z,9.13
2019-04-05T13:06:01.084Z,9.13
2019-04-05T13:08:30.576Z,8.91
2019-04-05T13:10:59.954Z,8.92
2019-04-05T13:13:29.259Z,8.80
2019-04-05T13:15:59.483Z,9.02
2019-04-05T13:18:31.566Z,8.76
2019-04-05T13:21:00.999Z,8.81
2019-04-05T13:23:31.256Z,8.88
2019-04-05T13:26:00.512Z,8.75
2019-04-05T13:28:30.129Z,8.87
2019-04-05T13:30:59.450Z,8.86
2019-04-05T13:33:29.122Z,8.72
2019-04-05T13:35:58.738Z,8.40
2019-04-05T13:38:29.851Z,8.23
2019-04-05T13:41:01.222Z,8.23
2019-04-05T13:43:31.847Z,8.08
2019-04-05T13:46:01.173Z,8.14
2019-04-05T13:48:30.518Z,8.19
2019-04-05T13:50:59.937Z,8.20
2019-04-05T13:53:29.553Z,8.13
2019-04-05T13:55:58.859Z,8.02
2019-04-05T13:58:28.153Z,8.09
2019-04-05T14:00:57.733Z,8.08
2019-04-05T14:03:27.061Z,7.95
2019-04-05T14:05:56.459Z,8.00
2019-04-05T14:08:26.037Z,7.93
2019-04-05T14:10:55.346Z,8.03
2019-04-05T14:13:24.722Z,8.00
2019-04-05T14:15:54.244Z,8.06
2019-04-05T14:18:23.500Z,7.88
2019-04-05T14:20:52.748Z,7.95
2019-04-05T14:23:23.921Z,7.79
2019-04-05T14:25:53.357Z,8.06
2019-04-05T14:28:22.692Z,8.14
2019-04-05T14:30:52.335Z,8.01
2019-04-05T14:33:24.535Z,7.91
2019-04-05T14:35:54.729Z,7.99
2019-04-05T14:38:23.953Z,8.06
2019-04-05T14:40:53.218Z,7.93
2019-04-05T14:43:22.516Z,7.94
2019-04-05T14:45:51.891Z,7.88
2019-04-05T14:48:21.178Z,7.87
2019-04-05T14:50:50.666Z,7.81
2019-04-05T14:53:20.262Z,7.79
2019-04-05T14:55:49.653Z,7.79
2019-04-05T14:58:19.367Z,7.87
2019-04-05T15:00:48.834Z,7.74
2019-04-05T15:03:18.155Z,7.62
2019-04-05T15:05:47.417Z,7.46
2019-04-05T15:08:20.455Z,7.53
2019-04-05T15:10:47.979Z,7.48
2019-04-05T15:13:17.307Z,7.54
2019-04-05T15:15:46.762Z,7.56
2019-04-05T15:18:16.071Z,7.62
2019-04-05T15:20:46.143Z,7.50
2019-04-05T15:23:15.786Z,7.43
2019-04-05T15:25:45.183Z,7.43
2019-04-05T15:28:14.474Z,7.47
2019-04-05T15:30:43.898Z,7.40
2019-04-05T15:33:13.180Z,7.35
2019-04-05T15:35:42.580Z,7.29
2019-04-05T15:38:11.958Z,7.34
2019-04-05T15:40:41.252Z,7.37
2019-04-05T15:43:10.595Z,7.39
2019-04-05T15:45:42.556Z,7.37
2019-04-05T15:48:10.865Z,7.32
2019-04-05T15:50:40.184Z,7.37
2019-04-05T15:53:09.749Z,7.42
2019-04-05T15:55:39.112Z,7.43
2019-04-05T15:58:08.472Z,7.55
2019-04-05T16:00:45.140Z,7.56
2019-04-05T16:03:14.878Z,7.62
2019-04-05T16:05:45.979Z,7.70
2019-04-05T16:08:18.131Z,7.76
2019-04-05T16:10:47.815Z,7.80
2019-04-05T16:13:17.060Z,7.81
2019-04-05T16:15:46.414Z,7.85
2019-04-05T16:18:16.036Z,7.89
2019-04-05T16:20:45.364Z,7.95
2019-04-05T16:23:14.674Z,8.04
2019-04-05T16:25:44.223Z,8.08
2019-04-05T16:28:13.613Z,8.12
2019-04-05T16:30:43.021Z,8.15
2019-04-05T16:33:12.310Z,8.18
2019-04-05T16:35:41.561Z,8.18
2019-04-05T16:38:10.883Z,8.19
2019-04-05T16:40:40.318Z,8.12
2019-04-05T16:43:09.601Z,8.01
2019-04-05T16:45:38.962Z,7.97
2019-04-05T16:48:08.367Z,7.87
2019-04-05T16:50:37.735Z,7.78
2019-04-05T16:53:07.097Z,7.69
2019-04-05T16:55:36.487Z,7.56
2019-04-05T16:58:05.827Z,7.45
2019-04-05T17:00:35.305Z,7.38
2019-04-05T17:03:04.863Z,7.31
2019-04-05T17:05:34.189Z,7.25
2019-04-05T17:08:03.674Z,7.17
2019-04-05T17:10:33.867Z,7.17
2019-04-05T17:13:03.134Z,7.20
2019-04-05T17:15:32.417Z,7.14
2019-04-05T17:18:01.688Z,7.11
2019-04-05T17:20:30.958Z,7.10
2019-04-05T17:23:00.322Z,7.10
2019-04-05T17:25:29.720Z,7.20
2019-04-05T17:27:59.011Z,7.24
2019-04-05T17:30:28.492Z,7.12
2019-04-05T17:32:57.847Z,7.10
2019-04-05T17:35:27.124Z,7.09
2019-04-05T17:37:56.437Z,7.08
2019-04-05T17:40:25.765Z,7.06
2019-04-05T17:42:55.065Z,7.03
2019-04-05T17:45:24.364Z,7.04
2019-04-05T17:47:53.869Z,6.98
2019-04-05T17:50:31.774Z,7.03
2019-04-05T17:53:11.933Z,6.99
2019-04-05T17:55:32.617Z,6.96
2019-04-05T17:58:03.624Z,6.91
2019-04-05T18:00:33.003Z,6.93
2019-04-05T18:03:02.359Z,6.97
2019-04-05T18:05:31.930Z,7.07
2019-04-05T18:08:01.252Z,7.05
2019-04-05T18:10:30.550Z,7.10
2019-04-05T18:13:00.152Z,7.16
2019-04-05T18:15:29.479Z,7.26
2019-04-05T18:17:58.813Z,7.35
2019-04-05T18:20:28.491Z,7.45
2019-04-05T18:22:57.776Z,7.52
2019-04-05T18:25:27.030Z,7.70
2019-04-05T18:27:56.528Z,7.75
2019-04-05T18:30:25.788Z,7.74
2019-04-05T18:32:55.030Z,7.94
2019-04-05T18:35:24.411Z,7.94
2019-04-05T18:37:53.928Z,7.99
2019-04-05T18:40:23.230Z,8.02
2019-04-05T18:42:52.790Z,8.06
2019-04-05T18:45:22.100Z,8.04
2019-04-05T18:47:51.350Z,8.14
2019-04-05T18:50:21.072Z,8.08
2019-04-05T18:52:50.401Z,8.13
2019-04-05T18:55:19.947Z,7.99
2019-04-05T18:57:49.417Z,7.90
2019-04-05T19:00:18.981Z,7.93
2019-04-05T19:02:48.278Z,7.87
2019-04-05T19:05:18.249Z,7.88
2019-04-05T19:07:47.843Z,7.86
2019-04-05T19:10:17.168Z,7.82
2019-04-05T19:12:47.375Z,7.82
2019-04-05T19:15:16.647Z,7.88
2019-04-05T19:17:45.903Z,7.78
2019-04-05T19:20:15.399Z,7.88
2019-04-05T19:22:44.702Z,7.89
2019-04-05T19:25:14.027Z,7.91
2019-04-05T19:27:43.556Z,7.88
2019-04-05T19:50:22.572Z,7.94
2019-04-05T19:52:52.119Z,7.93
2019-04-05T19:55:21.410Z,7.88
2019-04-05T19:57:50.774Z,7.83
2019-04-05T20:00:20.463Z,7.83
2019-04-05T20:02:49.856Z,7.84
2019-04-05T20:05:19.258Z,7.87
2019-04-05T20:07:48.819Z,7.83
2019-04-05T20:10:18.161Z,7.86
2019-04-05T20:12:47.477Z,7.90
2019-04-05T20:15:17.233Z,7.97
2019-04-05T20:17:46.526Z,7.99
2019-04-05T20:20:16.146Z,7.94
2019-04-05T20:22:45.592Z,7.93
2019-04-05T20:25:14.863Z,7.95
2019-04-05T20:27:44.185Z,7.96
2019-04-05T20:30:13.848Z,7.97
2019-04-05T20:32:43.099Z,7.93
2019-04-05T20:35:12.854Z,7.92
2019-04-05T20:37:42.180Z,7.97
2019-04-05T20:40:11.487Z,7.93
2019-04-05T20:42:40.876Z,7.94
2019-04-05T20:45:10.244Z,7.90
2019-04-05T20:47:39.542Z,7.91
2019-04-05T20:50:08.973Z,7.88
2019-04-05T20:52:38.285Z,7.77
2019-04-05T20:55:07.689Z,7.77
2019-04-05T20:57:37.048Z,7.68
2019-04-05T21:00:07.619Z,7.69
2019-04-05T21:02:36.917Z,7.64
2019-04-05T21:05:06.648Z,7.59
2019-04-05T21:07:36.122Z,7.53
2019-04-05T21:10:06.505Z,7.50
2019-04-05T21:12:35.790Z,7.47
2019-04-05T21:15:05.964Z,7.39
2019-04-05T21:17:35.313Z,7.42
2019-04-05T21:20:05.589Z,7.40
2019-04-05T21:22:35.102Z,7.43
2019-04-05T21:25:04.602Z,7.42
2019-04-05T21:27:33.890Z,7.47
2019-04-05T21:30:03.238Z,7.51
2019-04-05T21:32:32.518Z,7.47
2019-04-05T21:35:01.938Z,7.47
2019-04-05T21:37:31.204Z,7.50
2019-04-05T21:40:00.477Z,7.49
2019-04-05T21:42:29.808Z,7.51
2019-04-05T21:44:59.240Z,7.49
2019-04-05T21:47:28.518Z,7.55
2019-04-05T21:49:58.313Z,7.53
2019-04-05T21:52:28.364Z,7.54
2019-04-05T21:54:57.644Z,7.50
2019-04-05T21:57:26.925Z,7.56
2019-04-05T21:59:56.411Z,7.57
2019-04-05T22:02:25.874Z,7.58
2019-04-05T22:04:55.228Z,7.61
2019-04-05T22:07:24.714Z,7.66
2019-04-05T22:09:54.054Z,7.60
2019-04-05T22:12:26.775Z,7.63
2019-04-05T22:14:55.970Z,7.61
2019-04-05T22:17:25.238Z,7.53
2019-04-05T22:19:54.698Z,7.47
2019-04-05T22:22:24.002Z,7.43
2019-04-05T22:24:59.142Z,7.44
2019-04-05T22:27:24.428Z,7.43
2019-04-05T22:29:53.756Z,7.42
2019-04-05T22:32:23.082Z,7.41
2019-04-05T22:34:52.429Z,7.41
2019-04-05T22:37:21.722Z,7.45
2019-04-05T22:39:51.051Z,7.44
2019-04-05T22:42:20.592Z,7.37
2019-04-05T22:44:49.902Z,7.39
2019-04-05T22:47:19.311Z,7.37
2019-04-05T22:49:48.715Z,7.33
2019-04-05T22:52:18.012Z,7.31
2019-04-05T22:54:47.322Z,7.35
2019-04-05T22:57:16.786Z,7.34
2019-04-05T22:59:46.107Z,7.30
2019-04-05T23:02:15.465Z,7.29
2019-04-05T23:04:44.915Z,7.28
2019-04-05T23:07:15.230Z,7.22
2019-04-05T23:09:44.558Z,7.15
2019-04-05T23:12:14.027Z,7.17
2019-04-05T23:14:43.396Z,7.18
2019-04-05T23:17:12.689Z,7.17
2019-04-05T23:19:42.070Z,7.19
2019-04-05T23:22:11.424Z,7.23
2019-04-05T23:24:40.753Z,7.28
2019-04-05T23:27:10.150Z,7.22
2019-04-05T23:29:39.492Z,7.27
2019-04-05T23:32:08.770Z,7.28
2019-04-05T23:34:38.303Z,7.33
2019-04-05T23:37:07.604Z,7.30
2019-04-05T23:39:36.923Z,7.36
2019-04-05T23:42:06.313Z,7.37
2019-04-05T23:44:35.623Z,7.38
2019-04-05T23:47:04.888Z,7.34
2019-04-05T23:49:34.410Z,7.34
2019-04-05T23:52:03.766Z,7.25
2019-04-05T23:54:33.047Z,7.23
2019-04-05T23:57:02.370Z,7.26
2019-04-05T23:59:31.645Z,7.25
